Terminal Aerodrome Forecast
Issued by NWS

Current Version | Previous Version | Graphics & Text | Print | Product List | Glossary On
Versions: 1 2 3 4 5 6 7 8 9 10 11 12 13 14 15 16 17 18 19
000
FTUS41 KRNK 161720
TAFLWB
TAF
KLWB 161720Z 1618/1718 30009G17KT 3SM SHRA OVC020
     FM161900 30010G18KT 5SM -SHRA OVC025
     FM162100 31010KT P6SM OVC020
      TEMPO 1621/1622 2SM -SHRA OVC007
     FM162200 31010KT P6SM BKN035
      TEMPO 1622/1624 4SM -SHRA OVC025
     FM170000 32008KT P6SM BKN025
     FM171400 13005KT 2SM -SN OVC020=

USA.gov is the U.S. government's official web portal to all federal, state and local government web resources and services.